Time;durP1;ratioP1;P1;durP2;ratioP2;P2;SDS_P1;SDS_P2;PMS_P1;PMS_P2;Temp;Humidity;BMP_temperature;BMP_pressure;BME280_temperature;BME280_humidity;BME280_pressure;Samples;Min_cycle;Max_cycle;Signal;HPM_P1;HPM_P2
2023/03/26 00:01:53;;;;;;;;;3.60;2.60;;;;;13.70;42.77;97811.47;6208963;28;96316;-61
2023/03/26 00:04:57;;;;;;;;;4.00;4.00;;;;;13.67;42.81;97812.03;6201263;28;96343;-61
2023/03/26 00:08:00;;;;;;;;;6.00;5.00;;;;;13.45;43.55;97818.47;6202566;28;96273;-61
2023/03/26 00:11:05;;;;;;;;;6.00;5.00;;;;;13.47;43.36;97810.06;6259308;27;96660;-61
2023/03/26 00:14:12;;;;;;;;;4.60;4.60;;;;;13.27;43.81;97782.94;6213075;28;96308;-61
2023/03/26 00:17:17;;;;;;;;;3.00;3.00;;;;;13.58;43.81;97814.44;6204247;28;96524;-61
2023/03/26 00:20:21;;;;;;;;;4.00;4.00;;;;;13.60;44.46;97808.75;6295345;27;98835;-62
2023/03/26 00:23:24;;;;;;;;;3.20;3.20;;;;;13.64;44.51;97821.47;6227764;28;96426;-62
2023/03/26 00:26:28;;;;;;;;;4.00;4.00;;;;;13.61;44.55;97808.50;6228509;28;96749;-61
2023/03/26 00:29:34;;;;;;;;;3.00;3.00;;;;;13.63;44.47;97805.53;6226711;28;96333;-61
2023/03/26 00:32:39;;;;;;;;;4.80;4.00;;;;;13.63;44.87;97800.91;6293753;27;96326;-61
2023/03/26 00:35:46;;;;;;;;;3.75;3.00;;;;;13.58;44.63;97803.63;6228480;28;96345;-61
2023/03/26 00:38:51;;;;;;;;;3.00;3.00;;;;;13.48;45.37;97798.16;6295250;27;96391;-61
2023/03/26 00:41:55;;;;;;;;;5.00;5.00;;;;;13.50;45.18;97798.69;6214541;28;96745;-61
2023/03/26 00:44:58;;;;;;;;;2.00;2.00;;;;;13.58;45.02;97783.84;6216722;28;96523;-62
2023/03/26 00:48:03;;;;;;;;;2.00;2.00;;;;;13.59;44.75;97791.69;6272742;27;98336;-62
2023/03/26 00:51:07;;;;;;;;;5.00;5.00;;;;;13.59;45.01;97793.56;6204192;28;97032;-61
2023/03/26 00:54:11;;;;;;;;;4.25;4.00;;;;;13.50;45.12;97790.59;6264420;27;98336;-61
2023/03/26 00:57:15;;;;;;;;;4.00;4.00;;;;;13.45;45.36;97790.56;6203876;28;96481;-61
2023/03/26 01:00:36;;;;;;;;;3.20;3.20;;;;;13.43;45.35;97787.31;6258652;27;96878;-61
2023/03/26 01:03:43;;;;;;;;;5.00;5.00;;;;;13.40;45.14;97783.25;6296162;27;97525;-60
2023/03/26 01:07:09;;;;;;;;;3.00;3.00;;;;;13.53;45.07;97781.13;6223466;28;96257;-61
2023/03/26 01:10:13;;;;;;;;;6.00;6.00;;;;;13.61;44.81;97775.16;6217342;28;96300;-61
2023/03/26 01:13:18;;;;;;;;;5.80;5.20;;;;;13.47;45.02;97774.88;6206447;27;97230;-61
2023/03/26 01:16:27;;;;;;;;;6.00;6.00;;;;;13.48;45.00;97773.00;6210661;28;96289;-61
2023/03/26 01:19:39;;;;;;;;;5.00;5.00;;;;;13.53;44.69;97771.13;6227394;28;96290;-61
2023/03/26 01:22:48;;;;;;;;;3.00;3.00;;;;;13.61;44.39;97776.00;6227159;28;96348;-61
2023/03/26 01:25:59;;;;;;;;;4.00;3.00;;;;;13.64;44.36;97770.03;6229929;27;96390;-61
2023/03/26 01:29:07;;;;;;;;;5.00;5.00;;;;;13.68;44.18;97773.03;6228396;28;96419;-61
2023/03/26 01:32:22;;;;;;;;;6.00;6.00;;;;;13.74;44.18;97775.47;6230617;28;96232;-60
2023/03/26 01:35:38;;;;;;;;;3.60;3.60;;;;;13.80;44.17;97785.22;6204458;28;96249;-61
2023/03/26 01:38:53;;;;;;;;;5.40;5.40;;;;;13.71;44.27;97796.88;6204841;28;96220;-61
2023/03/26 01:42:05;;;;;;;;;4.60;4.60;;;;;13.59;46.23;97823.34;6205183;28;96446;-61
2023/03/26 01:45:14;;;;;;;;;5.00;5.00;;;;;13.30;49.33;97817.59;6231725;27;97304;-61
2023/03/26 01:48:18;;;;;;;;;7.00;7.00;;;;;13.19;49.98;97791.59;6229729;28;96307;-61
2023/03/26 01:51:29;;;;;;;;;4.40;4.40;;;;;13.08;50.59;97779.88;6286824;27;96813;-61
2023/03/26 01:54:33;;;;;;;;;3.20;3.00;;;;;12.90;51.37;97762.19;6226337;27;96536;-61
2023/03/26 01:57:50;;;;;;;;;4.00;4.00;;;;;12.80;51.02;97766.75;6289936;27;96209;-61
2023/03/26 02:01:02;;;;;;;;;5.00;5.00;;;;;12.71;52.56;97768.31;6256941;27;96644;-61
2023/03/26 02:04:21;;;;;;;;;3.00;3.00;;;;;12.70;52.56;97764.81;6208687;28;96295;-61
2023/03/26 02:07:33;;;;;;;;;3.00;3.00;;;;;12.73;52.80;97764.28;6276053;27;96097;-61
2023/03/26 02:10:42;;;;;;;;;3.20;3.20;;;;;12.77;52.65;97761.84;6293773;27;95898;-61
2023/03/26 02:13:47;;;;;;;;;5.00;5.00;;;;;12.82;52.95;97759.19;6292198;27;96324;-61
2023/03/26 02:16:50;;;;;;;;;3.20;3.20;;;;;12.79;53.12;97757.00;6276473;27;96471;-61
2023/03/26 02:19:54;;;;;;;;;3.00;3.00;;;;;12.82;52.84;97745.66;6275708;27;96159;-61
2023/03/26 02:22:58;;;;;;;;;5.00;5.00;;;;;12.77;52.99;97751.03;6210715;28;96681;-61
2023/03/26 02:26:05;;;;;;;;;5.00;4.00;;;;;12.77;53.11;97753.75;6300319;27;96330;-60
2023/03/26 02:29:12;;;;;;;;;4.00;4.00;;;;;12.82;53.05;97757.28;6274388;27;96957;-62
2023/03/26 02:32:19;;;;;;;;;3.75;3.75;;;;;12.84;53.29;97757.84;6290607;27;96513;-61
2023/03/26 02:35:22;;;;;;;;;3.00;3.00;;;;;12.76;53.90;97758.34;6282170;27;98428;-61
2023/03/26 02:38:33;;;;;;;;;4.33;4.00;;;;;12.72;53.94;97761.81;6301356;27;96248;-61
2023/03/26 02:41:38;;;;;;;;;3.00;3.00;;;;;12.69;53.95;97757.78;6286952;27;96223;-61
2023/03/26 02:44:46;;;;;;;;;3.00;3.00;;;;;12.71;53.57;97766.41;6290577;27;96344;-60
2023/03/26 02:47:50;;;;;;;;;5.00;5.00;;;;;12.73;53.94;97758.06;6208579;28;96234;-61
2023/03/26 02:51:18;;;;;;;;;4.00;4.00;;;;;12.72;53.68;97761.81;6276249;27;96073;-61
2023/03/26 02:54:34;;;;;;;;;5.00;5.00;;;;;12.78;53.74;97756.19;6207347;28;96205;-61
2023/03/26 02:57:58;;;;;;;;;4.00;4.00;;;;;12.86;53.02;97755.69;6206878;28;96717;-61
2023/03/26 03:01:09;;;;;;;;;5.00;5.00;;;;;12.96;53.24;97757.63;6261128;27;96925;-61
2023/03/26 03:04:22;;;;;;;;;3.20;3.20;;;;;12.99;52.77;97749.00;6296395;27;96644;-61
2023/03/26 03:07:26;;;;;;;;;4.25;4.25;;;;;13.02;52.69;97751.97;6293284;27;96334;-61
2023/03/26 03:10:31;;;;;;;;;5.00;4.00;;;;;13.02;52.76;97754.69;6277850;27;96869;-61
2023/03/26 03:13:45;;;;;;;;;5.40;5.00;;;;;13.09;52.20;97759.03;6291576;27;97566;-61
2023/03/26 03:17:09;;;;;;;;;7.00;6.00;;;;;13.11;51.93;97744.19;6277377;27;96220;-62
2023/03/26 03:20:13;;;;;;;;;4.60;4.20;;;;;13.06;52.08;97749.53;6289395;27;96148;-60
2023/03/26 03:23:17;;;;;;;;;3.40;3.40;;;;;13.06;51.59;97746.00;6290413;27;96736;-62
2023/03/26 03:26:22;;;;;;;;;2.00;2.00;;;;;13.02;51.53;97745.75;6301413;27;96233;-61
2023/03/26 03:29:28;;;;;;;;;5.00;4.00;;;;;12.93;51.34;97729.22;6301507;27;96328;-61
2023/03/26 03:32:35;;;;;;;;;3.00;3.00;;;;;13.08;50.97;97744.69;6299751;27;96747;-61
2023/03/26 03:35:40;;;;;;;;;3.00;3.00;;;;;13.03;51.17;97737.38;6291886;27;96247;-61
2023/03/26 03:38:44;;;;;;;;;4.00;4.00;;;;;13.14;50.93;97743.66;6275931;27;96290;-61
2023/03/26 03:41:52;;;;;;;;;4.60;4.60;;;;;13.17;50.57;97739.59;6267257;27;96728;-62
2023/03/26 03:44:55;;;;;;;;;5.00;5.00;;;;;13.18;50.75;97750.16;6301087;27;96314;-63
2023/03/26 03:48:38;;;;;;;;;3.50;3.50;;;;;13.19;50.09;97757.22;6259608;27;96987;-62
2023/03/26 03:51:43;;;;;;;;;4.00;4.00;;;;;13.23;49.84;97752.91;6267116;27;96366;-62
2023/03/26 03:55:16;;;;;;;;;4.40;4.40;;;;;13.28;49.74;97754.81;6293096;27;96749;-62
2023/03/26 03:58:27;;;;;;;;;6.00;5.00;;;;;13.29;49.50;97757.22;6327172;27;96404;-62
2023/03/26 04:01:36;;;;;;;;;3.80;3.00;;;;;13.33;49.24;97758.34;6315098;27;96393;-62
2023/03/26 04:04:48;;;;;;;;;5.40;5.40;;;;;13.35;48.89;97753.44;6314514;27;97729;-62
2023/03/26 04:07:55;;;;;;;;;6.00;5.00;;;;;13.42;48.45;97755.91;6315494;27;96417;-62
2023/03/26 04:11:02;;;;;;;;;4.00;3.00;;;;;13.37;48.07;97748.59;6315922;27;97163;-63
2023/03/26 04:14:24;;;;;;;;;2.60;2.60;;;;;13.44;47.99;97756.44;6309582;27;97023;-62
2023/03/26 04:17:41;;;;;;;;;4.00;4.00;;;;;13.52;47.71;97760.53;6299717;27;96549;-62
2023/03/26 04:20:49;;;;;;;;;5.00;5.00;;;;;13.60;47.75;97739.16;6311856;27;96723;-62
2023/03/26 04:24:00;;;;;;;;;4.00;4.00;;;;;13.62;47.90;97744.31;6301388;27;97412;-62
2023/03/26 04:27:29;;;;;;;;;5.60;5.60;;;;;13.62;48.04;97734.28;6303872;27;96429;-62
2023/03/26 04:30:43;;;;;;;;;5.00;5.00;;;;;13.64;48.17;97739.41;6297758;27;96567;-62
2023/03/26 04:34:13;;;;;;;;;3.40;3.40;;;;;13.63;47.83;97733.22;6303844;27;97175;-62
2023/03/26 04:37:33;;;;;;;;;3.80;3.00;;;;;13.70;47.66;97730.22;6289760;27;96398;-62
2023/03/26 04:40:46;;;;;;;;;2.80;2.80;;;;;13.71;47.76;97726.44;6295126;27;96763;-62
2023/03/26 04:44:08;;;;;;;;;4.25;4.00;;;;;13.71;47.94;97719.13;6293188;27;96237;-63
2023/03/26 04:47:12;;;;;;;;;4.00;4.00;;;;;13.72;47.74;97718.06;6210802;28;96479;-62
2023/03/26 04:50:21;;;;;;;;;3.80;3.80;;;;;13.74;47.86;97724.00;6272899;27;96666;-62
2023/03/26 04:53:26;;;;;;;;;3.25;3.25;;;;;13.77;47.54;97722.66;6253229;27;98018;-62
2023/03/26 04:56:44;;;;;;;;;5.00;5.00;;;;;13.75;47.28;97722.91;6185300;28;96895;-62
2023/03/26 05:00:14;;;;;;;;;6.25;5.25;;;;;13.75;47.44;97725.63;6268980;27;96465;-62
2023/03/26 05:03:20;;;;;;;;;5.00;5.00;;;;;13.76;47.32;97715.63;6277144;27;97122;-62
2023/03/26 05:06:26;;;;;;;;;5.00;4.75;;;;;13.79;47.19;97712.34;6278004;27;96210;-62
2023/03/26 05:09:32;;;;;;;;;4.00;4.00;;;;;13.78;47.19;97722.38;6270649;27;96242;-62
2023/03/26 05:12:46;;;;;;;;;5.00;5.00;;;;;13.70;47.23;97719.41;6263481;27;97475;-61
2023/03/26 05:15:57;;;;;;;;;5.00;5.00;;;;;13.65;47.29;97725.63;6261881;27;96862;-61
2023/03/26 05:19:15;;;;;;;;;4.50;3.75;;;;;13.62;47.12;97719.94;6275997;27;96282;-62
2023/03/26 05:22:18;;;;;;;;;4.00;4.00;;;;;13.63;47.63;97724.28;6277211;27;96248;-62
2023/03/26 05:25:42;;;;;;;;;4.00;4.00;;;;;13.62;47.50;97725.34;6210362;28;96252;-62
2023/03/26 05:28:55;;;;;;;;;4.00;4.00;;;;;13.57;47.69;97706.41;6277640;27;96836;-62
2023/03/26 05:32:01;;;;;;;;;4.00;3.00;;;;;13.58;47.97;97716.16;6271081;27;96246;-62
2023/03/26 05:35:06;;;;;;;;;4.00;4.00;;;;;13.54;47.98;97721.28;6266559;27;96228;-62
2023/03/26 05:38:09;;;;;;;;;4.00;4.00;;;;;13.59;47.81;97720.47;6269259;27;96764;-62
2023/03/26 05:41:14;;;;;;;;;5.00;5.00;;;;;13.59;48.09;97715.84;6185930;28;96239;-62
2023/03/26 05:44:19;;;;;;;;;7.00;7.00;;;;;13.56;48.08;97712.88;6261188;27;97096;-61
2023/03/26 05:47:22;;;;;;;;;5.60;5.00;;;;;13.56;48.02;97716.41;6220321;28;97573;-61
2023/03/26 05:50:25;;;;;;;;;4.00;4.00;;;;;13.72;47.86;97714.53;6211098;28;96322;-61
2023/03/26 05:53:34;;;;;;;;;5.25;5.25;;;;;13.68;47.97;97724.28;6345287;27;96290;-61
2023/03/26 05:56:57;;;;;;;;;5.50;5.50;;;;;13.90;47.96;97719.41;6230621;28;97100;-61
2023/03/26 06:00:20;;;;;;;;;5.40;5.00;;;;;14.09;47.16;97725.09;6214235;28;96218;-61
2023/03/26 06:03:26;;;;;;;;;6.00;6.00;;;;;14.23;46.92;97720.72;6295543;27;96236;-60
2023/03/26 06:06:30;;;;;;;;;4.00;4.00;;;;;14.24;46.64;97725.88;6211996;28;96348;-61
2023/03/26 06:09:37;;;;;;;;;7.40;7.40;;;;;14.33;46.24;97718.00;6278195;27;96394;-60
2023/03/26 06:12:42;;;;;;;;;5.00;4.40;;;;;14.48;46.33;97725.31;6293806;27;97150;-61
2023/03/26 06:15:45;;;;;;;;;5.60;5.00;;;;;14.57;46.44;97712.81;6300144;27;96889;-61
2023/03/26 06:18:56;;;;;;;;;5.40;5.40;;;;;14.79;45.77;97723.34;6294682;27;96238;-61
2023/03/26 06:22:26;;;;;;;;;4.00;4.00;;;;;14.99;44.92;97723.25;6272911;27;96694;-61
2023/03/26 06:26:05;;;;;;;;;4.00;4.00;;;;;15.07;44.56;97722.69;6231352;27;97020;-61
2023/03/26 06:29:16;;;;;;;;;3.40;3.40;;;;;15.24;44.13;97719.63;6226455;28;96307;-60
2023/03/26 06:32:40;;;;;;;;;4.40;4.00;;;;;15.22;43.75;97733.47;6208535;27;96821;-61
2023/03/26 06:35:52;;;;;;;;;4.20;3.20;;;;;15.26;43.46;97725.56;6284166;27;96432;-61
2023/03/26 06:38:55;;;;;;;;;3.00;3.00;;;;;15.23;43.67;97729.66;6289491;27;96386;-61
2023/03/26 06:41:59;;;;;;;;;4.00;4.00;;;;;15.17;43.18;97722.63;6277811;27;98926;-61
2023/03/26 06:45:17;;;;;;;;;2.00;1.80;;;;;15.17;42.66;97728.88;6273387;27;96729;-61
2023/03/26 06:48:46;;;;;;;;;3.00;3.00;;;;;15.02;42.59;97723.50;6241754;27;97005;-62
2023/03/26 06:52:08;;;;;;;;;3.25;3.25;;;;;15.11;42.45;97729.16;6214892;28;96294;-61
2023/03/26 06:55:15;;;;;;;;;4.40;4.40;;;;;14.93;42.40;97724.38;6215873;27;96331;-61
2023/03/26 06:58:38;;;;;;;;;5.00;4.60;;;;;14.93;42.49;97735.22;6215121;27;96286;-60
2023/03/26 07:02:15;;;;;;;;;3.40;3.00;;;;;15.04;42.38;97743.06;6247479;27;96859;-60
2023/03/26 07:05:38;;;;;;;;;4.75;3.75;;;;;14.98;42.36;97737.91;6222390;28;96732;-60
2023/03/26 07:09:05;;;;;;;;;4.00;4.00;;;;;14.95;43.04;97731.16;6237036;27;96343;-61
2023/03/26 07:12:27;;;;;;;;;2.80;2.00;;;;;15.11;42.80;97729.16;6219972;28;96463;-61
2023/03/26 07:15:51;;;;;;;;;3.00;3.00;;;;;15.13;42.05;97725.09;6273471;27;96645;-60
2023/03/26 07:19:18;;;;;;;;;4.00;4.00;;;;;15.37;41.90;97727.13;6230518;27;96286;-61
2023/03/26 07:22:24;;;;;;;;;3.80;3.80;;;;;15.50;41.72;97742.81;6267193;27;96727;-61
2023/03/26 07:25:44;;;;;;;;;3.00;3.00;;;;;15.59;41.46;97731.09;6284589;27;98557;-61
2023/03/26 07:28:55;;;;;;;;;5.80;4.80;;;;;15.66;40.92;97738.94;6286853;27;98666;-62
2023/03/26 07:32:42;;;;;;;;;3.60;3.60;;;;;15.76;41.25;97725.28;6284367;27;98437;-60
2023/03/26 07:36:23;;;;;;;;;4.00;4.00;;;;;15.83;40.82;97727.69;6275633;27;97430;-60
2023/03/26 07:39:53;;;;;;;;;3.40;3.40;;;;;16.45;39.79;97721.41;6211932;27;96226;-60
2023/03/26 07:43:15;;;;;;;;;4.00;4.00;;;;;17.49;38.16;97721.53;6303026;27;96131;-60
2023/03/26 07:46:52;;;;;;;;;7.40;7.00;;;;;18.13;36.50;97716.16;6245327;27;97477;-61
2023/03/26 07:50:34;;;;;;;;;5.00;4.00;;;;;18.86;35.38;97718.09;6232843;28;96417;-61
2023/03/26 07:53:49;;;;;;;;;3.00;2.40;;;;;19.36;34.44;97710.78;6233787;27;96246;-61
2023/03/26 07:57:22;;;;;;;;;5.00;5.00;;;;;19.65;33.56;97709.63;6298104;27;96268;-61
2023/03/26 08:00:43;;;;;;;;;2.00;2.00;;;;;20.12;32.35;97705.50;6280796;27;96543;-63
2023/03/26 08:04:17;;;;;;;;;3.00;3.00;;;;;19.73;31.63;97696.03;6279209;27;96425;-63
2023/03/26 08:08:12;;;;;;;;;2.80;2.40;;;;;19.38;31.95;97710.50;6165005;28;96408;-63
2023/03/26 08:11:39;;;;;;;;;2.60;2.60;;;;;19.59;32.08;97708.97;6195836;27;98886;-63
2023/03/26 08:14:53;;;;;;;;;4.00;4.00;;;;;19.17;32.93;97701.91;6187603;28;96347;-62
2023/03/26 08:18:02;;;;;;;;;4.75;4.75;;;;;19.61;32.64;97697.69;6206586;27;97099;-63
2023/03/26 08:21:12;;;;;;;;;3.00;3.00;;;;;19.84;31.76;97694.66;6197253;28;96780;-63
2023/03/26 08:24:22;;;;;;;;;4.00;4.00;;;;;20.47;30.79;97710.09;6205064;28;96450;-62
2023/03/26 08:27:37;;;;;;;;;3.00;2.25;;;;;20.93;30.79;97693.19;6197312;27;96319;-62
2023/03/26 08:30:41;;;;;;;;;3.00;3.00;;;;;20.87;30.01;97710.06;6198480;28;96579;-63
2023/03/26 08:33:45;;;;;;;;;3.00;2.25;;;;;20.12;30.43;97705.50;6194809;28;96270;-62
2023/03/26 08:36:48;;;;;;;;;3.00;3.00;;;;;19.62;31.45;97708.31;6195167;28;96416;-63
2023/03/26 08:39:51;;;;;;;;;6.00;5.00;;;;;19.32;32.83;97703.50;6204937;27;96384;-63
2023/03/26 08:43:43;;;;;;;;;3.00;3.00;;;;;18.91;32.49;97709.81;6198873;28;96278;-63
2023/03/26 08:47:29;;;;;;;;;4.20;4.20;;;;;17.95;33.23;97708.84;6201630;27;96893;-62
2023/03/26 08:51:02;;;;;;;;;4.00;3.50;;;;;17.66;34.34;97700.84;6252642;27;96566;-63
2023/03/26 08:54:54;;;;;;;;;4.40;4.40;;;;;17.54;34.67;97695.03;6268038;27;97109;-63
2023/03/26 08:58:29;;;;;;;;;2.00;2.00;;;;;17.72;34.22;97694.22;6274511;27;97596;-63
2023/03/26 09:02:06;;;;;;;;;3.00;3.00;;;;;17.92;34.00;97703.19;6268571;27;96437;-63
2023/03/26 09:05:55;;;;;;;;;4.00;3.00;;;;;19.06;32.30;97694.25;6188144;28;96748;-63
2023/03/26 09:09:30;;;;;;;;;3.00;3.00;;;;;19.67;30.56;97686.34;6248581;27;97021;-62
2023/03/26 09:13:16;;;;;;;;;3.00;3.00;;;;;20.88;29.45;97693.31;6184484;28;96766;-63
2023/03/26 09:16:52;;;;;;;;;3.00;3.00;;;;;22.03;27.98;97692.88;6252857;27;96477;-63
2023/03/26 09:20:33;;;;;;;;;4.75;3.00;;;;;22.80;25.98;97687.19;6252910;27;96728;-63
2023/03/26 09:24:15;;;;;;;;;3.00;2.50;;;;;23.50;24.68;97687.63;6233268;27;96721;-63
2023/03/26 09:27:35;;;;;;;;;2.00;2.00;;;;;23.73;23.90;97688.91;6182045;28;96392;-63
2023/03/26 09:31:21;;;;;;;;;1.00;1.00;;;;;24.24;24.12;97692.38;6250947;27;96803;-63
2023/03/26 09:34:56;;;;;;;;;2.00;2.00;;;;;24.18;23.89;97683.50;6204029;27;97018;-63
2023/03/26 09:38:12;;;;;;;;;5.00;5.00;;;;;23.79;24.55;97682.06;6260835;27;96466;-63
2023/03/26 09:41:17;;;;;;;;;2.00;2.00;;;;;23.24;24.36;97687.75;6253220;27;96395;-62
2023/03/26 09:45:07;;;;;;;;;2.80;2.80;;;;;22.49;25.49;97681.13;6195010;28;96288;-63
2023/03/26 09:48:51;;;;;;;;;2.80;2.80;;;;;22.04;26.89;97680.75;6209044;28;96564;-63
2023/03/26 09:52:08;;;;;;;;;4.00;4.00;;;;;21.40;27.31;97686.06;6209889;28;96392;-63
2023/03/26 09:55:29;;;;;;;;;5.00;5.00;;;;;20.79;27.67;97689.75;6259523;27;96972;-63
2023/03/26 09:59:25;;;;;;;;;4.00;3.75;;;;;20.37;28.81;97680.25;6210177;28;96482;-63
2023/03/26 10:02:49;;;;;;;;;4.00;4.00;;;;;19.98;29.80;97683.69;6210446;28;96413;-63
2023/03/26 10:06:02;;;;;;;;;3.40;3.40;;;;;19.87;30.06;97672.19;6208797;28;96438;-63
2023/03/26 10:09:20;;;;;;;;;5.00;5.00;;;;;19.85;30.21;97673.59;6193131;28;96651;-63
2023/03/26 10:12:36;;;;;;;;;4.00;4.00;;;;;19.51;30.40;97651.44;6210472;28;96693;-63
2023/03/26 10:16:00;;;;;;;;;5.40;5.00;;;;;19.59;29.96;97667.13;6210580;28;96308;-63
2023/03/26 10:19:21;;;;;;;;;4.00;4.00;;;;;20.79;28.39;97672.50;6210368;28;96474;-63
2023/03/26 10:22:42;;;;;;;;;3.20;2.80;;;;;20.23;28.93;97660.34;6210461;28;96291;-63
2023/03/26 10:26:06;;;;;;;;;4.60;4.60;;;;;20.10;29.40;97661.19;6193863;28;96832;-63
2023/03/26 10:29:26;;;;;;;;;3.25;3.25;;;;;19.73;29.11;97649.56;6193503;28;96777;-63
2023/03/26 10:32:44;;;;;;;;;5.00;5.00;;;;;19.59;29.73;97643.34;6193204;28;96513;-63
2023/03/26 10:36:02;;;;;;;;;5.00;4.00;;;;;18.86;30.32;97633.47;6209484;28;96347;-63
2023/03/26 10:39:20;;;;;;;;;4.00;4.00;;;;;18.57;30.83;97647.44;6192552;28;96994;-63
2023/03/26 10:43:08;;;;;;;;;3.00;2.40;;;;;18.45;31.82;97646.31;6251226;27;96674;-63
2023/03/26 10:47:02;;;;;;;;;2.75;2.00;;;;;18.42;31.78;97650.44;6251198;27;96247;-62
2023/03/26 10:50:36;;;;;;;;;6.40;6.00;;;;;18.35;31.83;97638.31;6196085;27;97470;-63
2023/03/26 10:53:46;;;;;;;;;4.00;3.80;;;;;18.05;31.98;97642.41;6184664;28;96432;-63
2023/03/26 10:56:51;;;;;;;;;5.20;4.20;;;;;18.01;32.21;97616.84;6184532;28;96311;-62
2023/03/26 10:59:57;;;;;;;;;5.00;4.25;;;;;18.36;31.84;97637.22;6183993;28;96283;-63
2023/03/26 11:03:23;;;;;;;;;4.00;3.80;;;;;18.42;31.18;97631.31;6184383;28;96801;-63
2023/03/26 11:06:40;;;;;;;;;5.00;5.00;;;;;18.16;31.21;97622.84;6192634;28;96808;-63
2023/03/26 11:09:53;;;;;;;;;2.20;2.20;;;;;18.08;31.12;97641.81;6264422;27;96367;-63
2023/03/26 11:13:07;;;;;;;;;4.40;4.40;;;;;17.83;31.63;97634.09;6215326;28;96324;-63
2023/03/26 11:16:17;;;;;;;;;2.20;2.20;;;;;17.77;31.67;97632.53;6216519;28;96388;-62
2023/03/26 11:19:29;;;;;;;;;3.80;3.80;;;;;17.72;31.54;97620.63;6266643;27;98491;-63
2023/03/26 11:22:47;;;;;;;;;5.60;5.60;;;;;18.71;30.55;97627.53;6276281;27;96468;-62
2023/03/26 11:26:14;;;;;;;;;6.00;6.00;;;;;18.81;30.61;97625.41;6283262;27;96451;-62
2023/03/26 11:29:37;;;;;;;;;4.25;4.00;;;;;19.39;29.66;97616.47;6244896;27;96976;-62
2023/03/26 11:32:45;;;;;;;;;5.00;4.75;;;;;19.43;29.65;97615.53;6204936;28;96654;-62
2023/03/26 11:35:51;;;;;;;;;4.00;3.60;;;;;19.38;29.54;97615.66;6216946;28;96356;-62
2023/03/26 11:38:59;;;;;;;;;5.00;5.00;;;;;19.43;29.48;97604.59;6214931;28;96949;-63
2023/03/26 11:42:09;;;;;;;;;5.00;5.00;;;;;19.32;29.57;97605.13;6252741;27;98358;-63
2023/03/26 11:45:21;;;;;;;;;3.80;3.80;;;;;19.16;29.80;97603.88;6216361;28;96903;-63
2023/03/26 11:48:30;;;;;;;;;4.50;4.50;;;;;18.99;29.80;97610.81;6216853;28;96296;-62
2023/03/26 11:51:36;;;;;;;;;3.00;3.00;;;;;18.69;29.59;97605.19;6284494;27;96530;-63
2023/03/26 11:54:42;;;;;;;;;4.00;3.00;;;;;18.71;30.04;97581.13;6278418;27;96147;-63
2023/03/26 11:57:53;;;;;;;;;5.50;5.50;;;;;19.26;29.39;97593.50;6217215;27;96076;-62
2023/03/26 12:00:57;;;;;;;;;5.00;5.00;;;;;19.72;28.99;97589.69;6216668;28;96268;-63
2023/03/26 12:04:11;;;;;;;;;5.20;5.20;;;;;20.05;28.60;97592.94;6265925;27;96736;-63
2023/03/26 12:07:19;;;;;;;;;5.00;5.00;;;;;20.18;28.23;97538.09;6283377;27;97065;-63
2023/03/26 12:10:29;;;;;;;;;5.00;5.00;;;;;20.58;28.26;97585.44;6275178;27;96995;-63
2023/03/26 12:13:37;;;;;;;;;5.00;5.00;;;;;20.42;28.24;97592.50;6283579;27;96357;-62
2023/03/26 12:16:57;;;;;;;;;3.00;3.00;;;;;20.37;28.83;97592.66;6278959;27;96673;-63
2023/03/26 12:20:05;;;;;;;;;4.00;3.00;;;;;20.07;28.14;97577.03;6231918;27;96673;-63
2023/03/26 12:23:43;;;;;;;;;4.00;4.00;;;;;19.63;28.55;97580.63;6235829;27;96255;-63
2023/03/26 12:27:00;;;;;;;;;3.00;3.00;;;;;19.40;29.27;97577.88;6276810;27;96343;-62
2023/03/26 12:30:12;;;;;;;;;4.00;4.00;;;;;19.16;29.39;97569.16;6211549;28;96738;-63
2023/03/26 12:33:24;;;;;;;;;4.00;4.00;;;;;19.13;30.07;97566.25;6278705;27;97064;-63
2023/03/26 12:36:32;;;;;;;;;3.00;3.00;;;;;18.90;30.26;97560.75;6204939;28;96156;-63
2023/03/26 12:39:39;;;;;;;;;3.00;3.00;;;;;18.75;30.67;97573.94;6258048;27;96937;-63
2023/03/26 12:43:06;;;;;;;;;2.00;2.00;;;;;18.59;30.81;97537.97;6276669;27;96535;-63
2023/03/26 12:46:32;;;;;;;;;3.20;3.20;;;;;18.50;31.51;97562.41;6211147;27;96268;-62
2023/03/26 13:00:40;;;;;;;;;3.00;3.00;;;;;18.35;32.24;97548.28;6210567;28;96227;-63
2023/03/26 13:04:08;;;;;;;;;4.00;4.00;;;;;18.33;31.56;97548.56;6277784;27;96529;-63
2023/03/26 13:07:22;;;;;;;;;4.00;4.00;;;;;18.30;31.33;97540.19;6277882;27;96930;-62
2023/03/26 13:10:58;;;;;;;;;5.00;4.75;;;;;18.41;31.91;97539.69;6274519;27;96359;-63
2023/03/26 13:14:16;;;;;;;;;4.00;3.20;;;;;18.50;31.37;97523.41;6210134;28;96249;-63
2023/03/26 13:17:30;;;;;;;;;3.00;3.00;;;;;18.62;31.42;97517.44;6262978;27;96638;-63
2023/03/26 13:20:47;;;;;;;;;4.00;4.00;;;;;18.54;31.69;97525.25;6210746;28;97768;-63
2023/03/26 13:23:59;;;;;;;;;3.00;3.00;;;;;18.43;31.89;97514.81;6210182;28;96702;-63
2023/03/26 13:27:20;;;;;;;;;4.00;4.00;;;;;18.48;31.65;97514.69;6210294;28;96332;-63
2023/03/26 13:30:33;;;;;;;;;4.80;3.60;;;;;18.47;31.01;97499.47;6277366;27;96640;-63
2023/03/26 13:33:49;;;;;;;;;3.00;3.00;;;;;18.70;31.15;97500.34;6190959;28;96802;-62
2023/03/26 13:37:04;;;;;;;;;3.80;3.00;;;;;18.81;31.14;97493.53;6255363;27;96797;-62
2023/03/26 13:40:23;;;;;;;;;4.00;4.00;;;;;18.91;30.90;97488.63;6207078;28;96315;-63
2023/03/26 13:43:36;;;;;;;;;4.00;4.00;;;;;18.81;29.61;97496.28;6201739;28;96937;-62
2023/03/26 13:46:43;;;;;;;;;5.60;5.00;;;;;18.57;29.66;97491.88;6140927;28;97153;-62
2023/03/26 13:49:51;;;;;;;;;3.00;2.20;;;;;18.61;30.23;97486.63;6155183;28;96318;-63
2023/03/26 13:52:59;;;;;;;;;3.80;3.20;;;;;18.62;30.51;97495.63;6157781;28;96690;-63
2023/03/26 13:56:02;;;;;;;;;4.00;4.00;;;;;18.91;29.95;97479.66;6147014;28;99275;-63
2023/03/26 13:59:12;;;;;;;;;4.20;4.20;;;;;19.47;29.90;97479.06;6146299;28;96375;-63
2023/03/26 14:02:35;;;;;;;;;4.20;4.20;;;;;19.89;29.28;97478.47;6150026;28;96229;-62
2023/03/26 14:05:45;;;;;;;;;4.00;4.00;;;;;20.14;28.56;97479.69;6137928;28;96911;-63
2023/03/26 14:08:54;;;;;;;;;3.60;3.00;;;;;19.98;28.12;97489.47;6145702;28;96916;-62
2023/03/26 14:12:24;;;;;;;;;4.00;3.00;;;;;19.76;28.75;97481.31;6135894;28;96418;-63
2023/03/26 14:15:31;;;;;;;;;5.00;4.00;;;;;19.66;29.22;97482.38;6155282;28;96215;-63
2023/03/26 14:18:42;;;;;;;;;3.00;3.00;;;;;19.54;29.16;97479.44;6160035;28;96452;-63
2023/03/26 14:22:03;;;;;;;;;3.00;3.00;;;;;19.47;29.53;97479.06;6148485;28;96304;-63
2023/03/26 14:25:24;;;;;;;;;4.00;4.00;;;;;19.37;29.92;97471.91;6153210;28;96664;-62
2023/03/26 14:28:53;;;;;;;;;3.20;3.00;;;;;19.40;29.99;97471.28;6152624;28;96559;-63
2023/03/26 14:32:25;;;;;;;;;5.00;5.00;;;;;19.21;30.01;97470.69;6150654;28;97590;-63
2023/03/26 14:35:37;;;;;;;;;3.00;3.00;;;;;19.14;29.59;97473.06;6151560;28;97023;-62
2023/03/26 14:39:04;;;;;;;;;8.00;5.60;;;;;19.09;30.19;97472.38;6150762;27;96793;-62
2023/03/26 14:42:18;;;;;;;;;4.00;4.00;;;;;18.99;29.95;97473.44;6151805;28;96316;-63
2023/03/26 14:45:52;;;;;;;;;2.00;2.00;;;;;18.82;30.09;97467.81;6252378;27;96371;-63
2023/03/26 14:49:19;;;;;;;;;3.00;3.00;;;;;18.81;29.90;97467.03;6208710;28;96856;-63
2023/03/26 14:52:36;;;;;;;;;1.50;1.50;;;;;18.68;30.65;97472.53;6199174;27;96360;-63
2023/03/26 14:55:59;;;;;;;;;5.00;5.00;;;;;18.49;31.00;97470.72;6203048;27;96852;-63
2023/03/26 14:59:46;;;;;;;;;5.40;5.40;;;;;18.40;30.97;97463.59;6185574;28;97413;-63
2023/03/26 15:03:33;;;;;;;;;3.00;3.00;;;;;18.47;31.19;97461.25;6195260;28;96412;-61
2023/03/26 15:07:18;;;;;;;;;4.00;4.00;;;;;18.39;31.25;97465.50;6194235;27;96436;-62
2023/03/26 15:11:08;;;;;;;;;5.00;4.60;;;;;18.33;31.60;97458.53;6206819;27;96900;-62
2023/03/26 15:14:49;;;;;;;;;5.00;5.00;;;;;18.24;31.49;97460.38;6206688;28;96452;-62
2023/03/26 15:18:34;;;;;;;;;3.20;3.00;;;;;18.18;31.57;97448.75;6204430;28;96635;-63
2023/03/26 15:22:11;;;;;;;;;2.00;2.00;;;;;18.27;31.19;97453.50;6153595;27;96514;-63
2023/03/26 15:25:41;;;;;;;;;4.00;4.00;;;;;18.32;31.20;97451.50;6187394;28;96252;-63
2023/03/26 15:29:11;;;;;;;;;3.00;3.00;;;;;18.15;31.44;97434.94;6201293;27;96361;-63
2023/03/26 15:32:55;;;;;;;;;4.50;4.00;;;;;18.32;31.57;97448.75;6197542;28;96956;-61
2023/03/26 15:36:23;;;;;;;;;5.00;5.00;;;;;18.32;31.12;97442.50;6195809;28;96634;-63
2023/03/26 15:39:44;;;;;;;;;6.50;6.00;;;;;18.33;30.52;97441.34;6226707;27;97520;-63